Latest Weather Observations for Barrow Island

IDW60801

Issued at 4:13 pm WST Thursday 9 April 2020 (issued every 10 minutes, with the page automatically refreshed every 10 minutes)

About weather observations | Map of weather stations | Latest weather observations for WA | Other Formats
Station Details ID: 005094 Name: BARROW ISLAND AIRPORT Lat: -20.87 Lon: 115.41 Height: 6.4 m
Data from the previous 72 hours. | See also: Recent months at Barrow Island
Date/Time
WST
Temp
°C
App
Temp
°C
Dew
Point
°C
Rel
Hum
%
Delta-T
°C
Wind Press
QNH
hPa
Press
MSL
hPa
Rain since
9am
mm
Dir  Spd
km/h
Gust
km/h
Spd
kts
Gust
kts
09/04:00pm 30.4 33.0 22.0 60 5.7 NNW 11 15 6 8 1012.6 1012.6 0.0
09/03:30pm 30.1 32.6 22.5 63 5.2 E 13 17 7 9 1012.6 1012.6 0.0
09/03:00pm 30.9 34.0 22.2 59 5.9 N 9 13 5 7 1012.7 1012.7 0.0
09/02:30pm 30.2 32.9 21.3 59 6.0 SE 9 13 5 7 1012.5 1012.5 0.0
09/02:00pm 30.3 33.2 21.7 60 5.8 S 9 13 5 7 1012.7 1012.7 0.0
09/01:30pm 30.1 32.9 21.5 60 5.8 SE 9 13 5 7 1012.8 1012.8 0.0
09/01:00pm 30.6 33.5 21.7 59 6.0 SSE 9 13 5 7 1012.9 1012.9 0.0
09/12:30pm 30.1 33.1 22.0 62 5.5 SSE 9 13 5 7 1013.1 1013.1 0.0
09/12:00pm 30.2 33.5 22.6 63 5.2 ENE 9 11 5 6 1013.5 1013.5 0.0
09/11:30am 29.8 32.4 22.0 63 5.3 SSE 11 13 6 7 1013.8 1013.8 0.0
09/11:00am 29.9 32.2 22.1 63 5.3 S 13 17 7 9 1014.0 1014.0 0.0
09/10:30am 30.0 31.6 22.2 63 5.3 SSW 17 20 9 11 1014.1 1014.1 0.0
09/10:00am 30.3 32.3 22.2 62 5.5 SSW 15 19 8 10 1014.1 1014.1 0.0
09/09:30am 29.9 31.3 21.0 59 5.9 SW 15 19 8 10 1014.1 1014.1 0.0
09/09:00am 29.8 31.5 20.1 56 6.4 WSW 11 17 6 9 1014.0 1014.0 0.0
09/08:30am 29.1 31.4 21.3 62 5.2 WSW 11 15 6 8 1013.8 1013.8 0.0
09/08:00am 28.0 31.1 22.2 70 3.9 W 9 13 5 7 1013.5 1013.5 0.0
09/07:30am 27.1 31.2 23.3 80 2.6 WNW 7 9 4 5 1013.4 1013.4 0.0
09/07:00am 24.9 27.9 22.6 87 1.5 NW 11 11 6 6 1013.1 1013.1 0.0
09/06:30am 23.9 26.2 22.0 89 1.3 NW 13 13 7 7 1012.9 1012.9 0.0
09/06:00am 23.9 26.4 21.8 88 1.4 NW 11 13 6 7 1013.0 1013.0 0.0
09/05:30am 23.9 26.8 21.8 88 1.4 W 9 11 5 6 1012.7 1012.7 0.0
09/05:00am 24.5 28.1 22.4 88 1.4 WNW 7 9 4 5 1012.5 1012.5 0.0
09/04:30am 24.2 27.3 21.5 85 1.8 W 7 9 4 5 1012.3 1012.3 0.0
09/04:00am 24.5 27.3 21.6 84 1.9 W 9 11 5 6 1012.4 1012.4 0.0
09/03:30am 25.3 28.2 22.4 84 1.9 WSW 11 13 6 7 1012.5 1012.5 0.0
09/03:00am 24.8 27.3 21.1 80 2.4 WSW 9 11 5 6 1012.6 1012.6 0.0
09/02:30am 26.1 28.8 22.2 79 2.6 SW 11 15 6 8 1012.8 1012.8 0.0
09/02:00am 24.9 27.5 21.2 80 2.4 WSW 9 11 5 6 1013.0 1013.0 0.0
09/01:30am 25.0 27.4 20.9 78 2.7 W 9 9 5 5 1012.9 1012.9 0.0
09/01:00am 25.4 28.3 21.1 77 2.8 WSW 7 7 4 4 1012.9 1012.9 0.0
09/12:30am 26.0 28.3 21.4 76 3.1 WSW 11 13 6 7 1012.9 1012.9 0.0
09/12:00am 26.7 29.2 22.5 78 2.8 WSW 13 15 7 8 1012.8 1012.8 0.0
 
Date/Time
WST
Temp
°C
App
Temp
°C
Dew
Point
°C
Rel
Hum
%
Delta-T
°C
Wind Press
QNH
hPa
Press
MSL
hPa
Rain since
9am
mm
Dir  Spd
km/h
Gust
km/h
Spd
kts
Gust
kts
08/11:30pm 26.8 29.2 22.2 76 3.1 WSW 13 15 7 8 1012.9 1012.9 0.0
08/11:00pm 26.2 28.2 21.6 76 3.1 W 13 15 7 8 1013.0 1013.0 0.0
08/10:30pm 26.3 27.7 21.9 77 2.9 W 17 20 9 11 1012.9 1012.9 0.0
08/10:00pm 26.0 27.0 21.0 74 3.3 WNW 17 19 9 10 1012.9 1012.9 0.0
08/09:30pm 26.3 27.7 21.1 73 3.4 WNW 15 17 8 9 1012.9 1012.9 0.0
08/09:00pm 26.5 27.9 21.0 72 3.6 WNW 15 17 8 9 1012.9 1012.9 0.0
08/08:30pm 26.7 28.1 21.0 71 3.8 WNW 15 19 8 10 1012.7 1012.7 0.0
08/08:00pm 26.8 28.1 20.9 70 3.9 WNW 15 17 8 9 1012.5 1012.5 0.0
08/07:30pm 27.1 28.3 20.7 68 4.2 WNW 15 17 8 9 1012.1 1012.1 0.0
08/07:00pm 27.5 29.0 20.6 66 4.5 WNW 13 17 7 9 1011.8 1011.8 0.0
08/06:30pm 28.0 28.8 20.6 64 4.9 WNW 17 20 9 11 1011.4 1011.4 0.0
08/06:00pm 28.9 28.5 20.1 59 5.8 W 22 26 12 14 1011.1 1011.1 0.0
08/05:30pm 30.1 29.6 19.2 52 7.1 W 20 24 11 13 1010.9 1010.9 0.0
08/05:00pm 30.8 30.6 19.8 52 7.2 W 20 22 11 12 1010.8 1010.8 0.0
08/04:30pm 31.9 31.5 18.1 43 8.9 WSW 17 20 9 11 1010.7 1010.7 0.0
08/04:00pm 32.2 31.7 17.7 42 9.3 WSW 17 20 9 11 1010.5 1010.5 0.0
08/03:30pm 32.1 31.7 17.2 41 9.5 WSW 15 19 8 10 1010.5 1010.5 0.0
08/03:00pm 31.2 31.3 19.9 51 7.5 SW 19 20 10 11 1010.5 1010.5 0.0
08/02:30pm 31.2 32.2 21.7 57 6.4 SW 19 22 10 12 1010.6 1010.6 0.0
08/02:00pm 31.1 31.8 21.6 57 6.4 SW 20 26 11 14 1010.7 1010.7 0.0
08/01:30pm 31.0 31.3 21.5 57 6.4 SW 22 26 12 14 1011.0 1011.0 0.0
08/01:00pm 30.4 30.9 20.9 57 6.3 SSW 19 20 10 11 1011.3 1011.3 0.0
08/12:30pm 30.6 31.4 21.4 58 6.2 SSW 19 20 10 11 1011.5 1011.5 0.0
08/12:00pm 30.3 31.6 20.8 56 6.3 SSW 15 17 8 9 1011.8 1011.8 0.0
08/11:30am 30.7 31.5 20.6 54 6.7 SSW 17 19 9 10 1012.2 1012.2 0.0
08/11:00am 30.1 30.6 20.1 55 6.6 SW 17 19 9 10 1012.6 1012.6 0.0
08/10:30am 30.1 31.4 20.9 57 6.1 SW 15 19 8 10 1012.7 1012.7 0.0
08/10:00am 29.7 30.6 20.8 58 5.9 SSW 17 19 9 10 1012.7 1012.7 0.0
08/09:30am 29.3 30.3 20.2 58 6.0 SSW 15 19 8 10 1012.6 1012.6 0.0
08/09:00am 29.2 30.7 20.6 59 5.7 SW 13 17 7 9 1012.4 1012.4 0.0
08/08:30am 28.9 31.1 20.4 60 5.6 WSW 9 11 5 6 1012.2 1012.2 0.0
08/08:00am 28.1 29.8 19.3 58 5.7 WSW 9 13 5 7 1011.8 1011.8 0.0
08/07:30am 27.1 29.5 20.9 69 4.1 W 9 9 5 5 1011.5 1011.5 0.0
08/07:00am 25.2 26.5 20.2 74 3.3 WSW 13 15 7 8 1011.3 1011.3 0.0
08/06:30am 23.7 25.0 20.2 81 2.3 WSW 13 15 7 8 1011.1 1011.1 0.0
08/06:00am 23.8 25.8 20.7 83 2.0 W 11 13 6 7 1010.9 1010.9 0.0
08/05:30am 23.8 25.8 20.7 83 2.0 W 11 13 6 7 1010.7 1010.7 0.0
08/05:00am 24.4 26.4 20.7 80 2.4 WSW 11 13 6 7 1010.7 1010.7 0.0
08/04:30am 24.4 26.2 21.1 82 2.2 WSW 13 15 7 8 1010.6 1010.6 0.0
08/04:00am 24.3 26.1 21.8 86 1.7 W 15 15 8 8 1010.5 1010.5 0.0
08/03:30am 24.4 26.5 21.7 85 1.8 W 13 13 7 7 1010.5 1010.5 0.0
08/03:00am 24.5 26.9 21.6 84 1.9 W 11 11 6 6 1010.6 1010.6 0.0
08/02:30am 25.0 28.5 22.1 84 1.9 WNW 7 9 4 5 1010.7 1010.7 0.0
08/02:00am 24.9 28.1 21.6 82 2.2 WNW 7 9 4 5 1010.9 1010.9 0.0
08/01:30am 25.1 27.9 21.6 81 2.3 WNW 9 9 5 5 1010.9 1010.9 0.0
08/01:00am 25.1 28.1 21.2 79 2.6 WNW 7 9 4 5 1011.0 1011.0 0.0
08/12:30am 25.3 28.4 21.4 79 2.6 NNW 7 9 4 5 1011.0 1011.0 0.0
08/12:00am 25.2 27.6 20.9 77 2.8 N 9 9 5 5 1011.2 1011.2 0.0
 
Date/Time
WST
Temp
°C
App
Temp
°C
Dew
Point
°C
Rel
Hum
%
Delta-T
°C
Wind Press
QNH
hPa
Press
MSL
hPa
Rain since
9am
mm
Dir  Spd
km/h
Gust
km/h
Spd
kts
Gust
kts
07/11:30pm 25.4 29.4 20.6 75 3.1 CALM 0 0 0 0 1011.1 1011.1 0.0
07/11:00pm 25.8 28.8 20.8 74 3.3 N 6 9 3 5 1011.0 1011.0 0.0
07/10:30pm 25.6 28.4 20.4 73 3.4 N 6 7 3 4 1010.8 1010.8 0.0
07/10:00pm 26.1 28.9 20.4 71 3.7 NW 6 7 3 4 1010.8 1010.8 0.0
07/09:30pm 26.5 29.3 20.8 71 3.8 NW 7 7 4 4 1010.6 1010.6 0.0
07/09:00pm 26.1 28.7 20.4 71 3.7 WNW 7 9 4 5 1010.3 1010.3 0.0
07/08:30pm 26.3 28.2 20.6 71 3.7 WNW 11 13 6 7 1010.2 1010.2 0.0
07/08:00pm 26.8 28.6 21.1 71 3.8 W 13 15 7 8 1010.0 1010.0 0.0
07/07:30pm 27.3 28.7 21.1 69 4.1 W 15 17 8 9 1009.6 1009.6 0.0
07/07:00pm 27.7 28.2 20.8 66 4.6 W 19 20 10 11 1009.2 1009.2 0.0
07/06:30pm 28.1 28.8 20.4 63 5.1 WNW 17 20 9 11 1009.1 1009.1 0.0
07/06:00pm 29.1 29.2 20.0 58 6.0 W 19 22 10 12 1008.7 1008.7 0.0
07/05:30pm 30.4 30.5 20.0 53 6.8 W 19 22 10 12 1008.6 1008.6 0.0
07/05:00pm 30.8 30.6 19.8 52 7.2 W 20 24 11 13 1008.4 1008.4 0.0
07/04:30pm 31.6 32.0 19.9 50 7.7 W 17 22 9 12 1008.1 1008.1 0.0
07/04:00pm 32.1 32.3 19.4 47 8.3 WSW 17 20 9 11 1008.1 1008.1 0.0
07/03:30pm 32.1 32.8 20.4 50 7.8 WSW 17 20 9 11 1008.3 1008.3 0.0
07/03:00pm 31.0 32.4 22.9 62 5.6 SW 20 22 11 12 1008.3 1008.3 0.0
07/02:30pm 30.4 31.5 22.0 60 5.7 SSW 19 20 10 11 1008.6 1008.6 0.0
07/02:00pm 30.6 31.6 21.7 59 6.0 SSW 19 20 10 11 1008.9 1008.9 0.0
07/01:30pm 30.3 31.3 21.1 58 6.1 SW 17 19 9 10 1009.3 1009.3 0.0
07/01:00pm 30.2 31.8 20.7 56 6.3 SW 13 17 7 9 1009.7 1009.7 0.0
07/12:30pm 30.4 31.3 20.0 53 6.8 SSW 15 17 8 9 1009.9 1009.9 0.0
07/12:00pm 30.4 31.4 20.3 54 6.7 SSW 15 17 8 9 1010.3 1010.3 0.0
07/11:30am 30.7 31.3 20.3 53 6.9 SW 17 19 9 10 1010.5 1010.5 0.0
07/11:00am 30.4 31.2 20.6 55 6.5 SW 17 19 9 10 1010.9 1010.9 0.0
07/10:30am 30.1 30.1 19.8 54 6.8 SW 19 20 10 11 1011.3 1011.3 0.0
07/10:00am 30.0 30.6 19.4 53 6.9 SW 15 17 8 9 1011.2 1011.2 0.0
07/09:30am 29.4 30.5 20.5 58 5.9 SW 15 17 8 9 1011.2 1011.2 0.0
07/09:00am 29.4 30.1 20.5 58 5.9 SW 17 19 9 10 1011.4 1011.4 0.0
07/08:30am 28.9 28.9 20.1 59 5.8 SSW 20 24 11 13 1011.3 1011.3 0.0
07/08:00am 28.5 28.8 20.5 62 5.3 SSW 19 22 10 12 1011.0 1011.0 0.0
07/07:30am 28.1 27.5 20.6 63 4.9 SSW 24 26 13 14 1010.9 1010.9 0.0
07/07:00am 27.4 27.2 20.5 66 4.5 SSW 22 26 12 14 1010.8 1010.8 0.0
07/06:30am 25.3 27.2 22.0 82 2.2 WSW 15 17 8 9 1010.7 1010.7 0.0
07/06:00am 25.3 26.9 21.4 79 2.6 WSW 15 17 8 9 1010.3 1010.3 0.0
07/05:30am 25.3 26.7 21.8 81 2.3 WSW 17 20 9 11 1010.0 1010.0 0.0
07/05:00am 25.1 26.9 22.6 86 1.7 W 17 17 9 9 1009.9 1009.9 0.0
07/04:30am 25.1 26.9 22.6 86 1.7 W 17 19 9 10 1009.7 1009.7 0.0
07/04:00am 25.2 27.7 23.1 88 1.4 WNW 15 17 8 9 1009.4 1009.4 0.0
07/03:30am 25.1 27.1 23.0 88 1.4 WNW 17 19 9 10 1009.6 1009.6 0.0
07/03:00am 25.3 27.7 23.0 87 1.6 WNW 15 17 8 9 1009.5 1009.5 0.0
07/02:30am 25.5 27.8 22.8 85 1.8 NW 15 17 8 9 1009.5 1009.5 0.0
07/02:00am 25.4 27.1 22.3 83 2.1 WNW 17 19 9 10 1009.8 1009.8 0.0
07/01:30am 25.1 27.0 22.0 83 2.1 WNW 15 17 8 9 1009.9 1009.9 0.0
07/01:00am 25.2 27.2 22.3 84 1.9 WNW 15 17 8 9 1010.3 1010.3 0.0
07/12:30am 25.4 27.4 22.3 83 2.1 NW 15 15 8 8 1010.2 1010.2 0.0
07/12:00am 26.0 28.5 22.5 81 2.4 WNW 13 15 7 8 1010.4 1010.4 0.0
 
Date/Time
WST
Temp
°C
App
Temp
°C
Dew
Point
°C
Rel
Hum
%
Delta-T
°C
Wind Press
QNH
hPa
Press
MSL
hPa
Rain since
9am
mm
Dir  Spd
km/h
Gust
km/h
Spd
kts
Gust
kts
06/11:30pm 26.8 28.6 22.6 78 2.8 WSW 17 20 9 11 1010.6 1010.6 0.0
06/11:00pm 27.2 29.1 23.4 80 2.6 WSW 19 24 10 13 1010.7 1010.7 0.0
06/10:30pm 27.0 29.3 23.5 81 2.4 W 17 20 9 11 1010.7 1010.7 0.0
06/10:00pm 26.8 29.1 23.5 82 2.3 W 17 20 9 11 1010.6 1010.6 0.0
06/09:30pm 27.0 29.0 23.0 79 2.7 NW 17 19 9 10 1010.4 1010.4 0.0
06/09:00pm 26.8 29.0 22.6 78 2.8 WNW 15 17 8 9 1010.3 1010.3 0.0
06/08:30pm 26.9 29.0 22.5 77 3.0 W 15 17 8 9 1010.3 1010.3 0.0
06/08:00pm 27.1 29.7 22.7 77 3.0 WNW 13 19 7 10 1009.9 1009.9 0.0
06/07:30pm 27.5 29.5 22.9 76 3.1 WNW 17 20 9 11 1009.7 1009.7 0.0
06/07:00pm 27.8 29.3 23.0 75 3.3 WNW 20 28 11 15 1009.4 1009.4 0.0
06/06:30pm 28.2 29.3 23.1 74 3.5 WNW 22 28 12 15 1009.2 1009.2 0.0
06/06:00pm 28.9 30.2 22.6 69 4.3 WNW 20 26 11 14 1009.0 1009.0 0.0
06/05:30pm 29.5 29.9 20.9 60 5.7 NW 20 24 11 13 1008.7 1008.7 0.0
06/05:00pm 30.6 30.6 20.2 53 6.9 WNW 20 26 11 14 1008.5 1008.5 0.0
06/04:30pm 31.5 31.2 19.5 49 7.9 WNW 20 26 11 14 1008.6 1008.6 0.0

Other formats

Comma delimited format used in spreadsheet applications
http://www.bom.gov.au/fwo/IDW60801/IDW60801.95304.axf

JavaScript Object Notation format (JSON) in row-major order
http://www.bom.gov.au/fwo/IDW60801/IDW60801.95304.json

Data quality

Most of these data are generated automatically and are frequently updated. Quality checks on data are not normally performed. It is possible for incorrect values to appear. Refer to information at About Latest Weather Observations and please check the disclaimer before using these data.